createdAt,value
2023-01-03T00:01:46.843Z,18.87
2023-01-03T00:04:15.260Z,18.93
2023-01-03T00:06:52.502Z,18.13
2023-01-03T00:09:25.464Z,18.13
2023-01-03T00:12:30.240Z,18.07
2023-01-03T00:14:59.789Z,18.17
2023-01-03T00:17:28.112Z,20.90
2023-01-03T00:19:57.202Z,19.70
2023-01-03T00:22:25.367Z,17.60
2023-01-03T00:24:54.924Z,19.33
2023-01-03T00:27:22.924Z,18.73
2023-01-03T00:29:51.042Z,18.67
2023-01-03T00:32:19.184Z,18.37
2023-01-03T00:34:47.981Z,18.60
2023-01-03T00:37:16.409Z,17.07
2023-01-03T00:39:45.068Z,18.87
2023-01-03T00:42:14.684Z,18.27
2023-01-03T00:44:42.980Z,17.73
2023-01-03T00:47:10.997Z,18.60
2023-01-03T00:49:39.770Z,18.20
2023-01-03T00:52:07.853Z,18.00
2023-01-03T00:54:35.926Z,18.40
2023-01-03T00:57:04.223Z,18.10
2023-01-03T00:59:33.681Z,17.50
2023-01-03T01:02:01.857Z,18.60
2023-01-03T01:04:32.787Z,17.60
2023-01-03T01:07:02.715Z,17.40
2023-01-03T01:09:33.408Z,17.10
2023-01-03T01:12:01.829Z,18.10
2023-01-03T01:14:33.476Z,18.10
2023-01-03T01:17:28.416Z,17.60
2023-01-03T01:19:56.455Z,18.90
2023-01-03T01:22:24.518Z,19.30
2023-01-03T01:24:52.512Z,18.70
2023-01-03T01:27:20.535Z,18.80
2023-01-03T01:29:48.610Z,18.77
2023-01-03T01:32:16.576Z,18.67
2023-01-03T01:34:45.977Z,19.40
2023-01-03T01:37:14.005Z,20.37
2023-01-03T01:39:42.069Z,19.63
2023-01-03T01:42:32.252Z,20.57
2023-01-03T01:45:01.989Z,19.80
2023-01-03T01:47:39.559Z,18.73
2023-01-03T01:50:21.701Z,18.90
2023-01-03T01:52:54.051Z,18.80
2023-01-03T01:55:25.607Z,18.13
2023-01-03T01:57:54.969Z,18.70
2023-01-03T02:00:23.450Z,18.30
2023-01-03T02:02:54.100Z,17.17
2023-01-03T02:05:25.703Z,17.57
2023-01-03T02:07:54.728Z,18.50
2023-01-03T02:10:36.030Z,17.07
2023-01-03T02:13:12.360Z,19.43
2023-01-03T02:15:55.817Z,16.73
2023-01-03T02:18:38.802Z,17.17
2023-01-03T02:21:30.144Z,17.70
2023-01-03T02:24:32.937Z,17.07
2023-01-03T02:27:09.078Z,16.80
2023-01-03T02:30:19.378Z,17.43
2023-01-03T02:32:54.297Z,16.70
2023-01-03T02:35:30.378Z,17.50
2023-01-03T02:38:03.208Z,19.33
2023-01-03T02:40:37.638Z,18.07
2023-01-03T02:43:10.174Z,18.67
2023-01-03T02:45:55.273Z,17.70
2023-01-03T02:48:41.029Z,18.80
2023-01-03T02:51:15.904Z,18.23
2023-01-03T02:53:48.376Z,19.67
2023-01-03T02:56:21.439Z,19.70
2023-01-03T02:58:53.973Z,21.53
2023-01-03T03:01:22.271Z,23.33
2023-01-03T03:03:52.245Z,25.33
2023-01-03T03:06:27.499Z,24.90
2023-01-03T03:08:57.525Z,23.40
2023-01-03T03:11:48.311Z,21.40
2023-01-03T03:14:22.319Z,19.90
2023-01-03T03:16:53.122Z,20.30
2023-01-03T03:20:01.710Z,21.30
2023-01-03T03:23:11.301Z,19.10
2023-01-03T03:25:45.457Z,19.70
2023-01-03T03:28:35.267Z,19.77
2023-01-03T03:31:08.413Z,18.40
2023-01-03T03:33:41.959Z,17.70
2023-01-03T03:36:16.991Z,17.87
2023-01-03T03:38:46.167Z,17.97
2023-01-03T03:41:41.187Z,17.47
2023-01-03T03:44:33.308Z,18.70
2023-01-03T03:47:08.111Z,17.93
2023-01-03T03:49:38.357Z,17.67
2023-01-03T03:52:12.785Z,17.77
2023-01-03T03:54:44.093Z,16.57
2023-01-03T03:57:16.762Z,17.40
2023-01-03T03:59:50.150Z,16.83
2023-01-03T04:02:20.060Z,17.60
2023-01-03T04:04:50.886Z,21.50
2023-01-03T04:07:20.286Z,20.07
2023-01-03T04:09:48.523Z,20.43
2023-01-03T04:12:16.620Z,17.03
2023-01-03T04:14:44.716Z,17.10
2023-01-03T04:17:12.967Z,16.07
2023-01-03T04:19:41.251Z,16.83
2023-01-03T04:22:09.360Z,15.73
2023-01-03T04:24:38.773Z,16.60
2023-01-03T04:27:06.956Z,16.50
2023-01-03T04:29:39.235Z,15.93
2023-01-03T04:32:08.503Z,15.53
2023-01-03T04:34:36.613Z,14.83
2023-01-03T04:37:04.785Z,15.00
2023-01-03T04:39:33.067Z,15.47
2023-01-03T04:42:22.576Z,15.03
2023-01-03T04:44:49.935Z,16.53
2023-01-03T04:47:18.052Z,15.63
2023-01-03T04:49:47.248Z,15.70
2023-01-03T04:52:16.233Z,16.07
2023-01-03T04:54:44.416Z,15.00
2023-01-03T04:57:13.872Z,14.90
2023-01-03T04:59:42.218Z,15.60
2023-01-03T05:02:10.531Z,14.87
2023-01-03T05:04:38.655Z,14.80
2023-01-03T05:07:07.019Z,15.00
2023-01-03T05:09:36.149Z,14.97
2023-01-03T05:12:04.310Z,14.20
2023-01-03T05:14:33.723Z,15.60
2023-01-03T05:20:14.495Z,15.27
2023-01-03T05:22:59.941Z,15.03
2023-01-03T05:25:45.312Z,14.50
2023-01-03T05:28:17.341Z,15.03
2023-01-03T05:30:47.204Z,16.47
2023-01-03T05:33:15.302Z,13.47
2023-01-03T05:35:46.941Z,15.40
2023-01-03T05:38:16.358Z,15.80
2023-01-03T05:40:44.746Z,15.50
2023-01-03T05:43:13.234Z,15.83
2023-01-03T05:45:41.680Z,14.90
2023-01-03T05:48:11.119Z,16.40
2023-01-03T05:50:39.434Z,18.20
2023-01-03T05:53:07.480Z,18.00
2023-01-03T05:55:37.364Z,16.83
2023-01-03T05:58:05.497Z,17.37
2023-01-03T06:00:34.120Z,16.53
2023-01-03T06:03:02.341Z,15.30
2023-01-03T06:05:31.743Z,14.40
2023-01-03T06:08:02.242Z,13.63
2023-01-03T06:10:30.663Z,13.13
2023-01-03T06:12:59.437Z,12.17
2023-01-03T06:15:27.517Z,13.00
2023-01-03T06:18:02.563Z,11.40
2023-01-03T06:20:32.271Z,12.10
2023-01-03T06:23:00.430Z,10.90
2023-01-03T06:25:28.470Z,10.83
2023-01-03T06:27:56.747Z,11.07
2023-01-03T06:30:24.922Z,9.97
2023-01-03T06:32:53.040Z,10.20
2023-01-03T06:35:21.170Z,11.00
2023-01-03T06:37:50.575Z,10.40
2023-01-03T06:40:19.378Z,10.43
2023-01-03T06:42:47.451Z,11.20
2023-01-03T06:45:33.852Z,11.67
2023-01-03T06:48:23.223Z,12.17
2023-01-03T06:51:09.025Z,15.20
2023-01-03T06:53:40.513Z,12.90
2023-01-03T06:56:09.009Z,15.53
2023-01-03T06:58:37.646Z,13.13
2023-01-03T07:01:07.235Z,12.83
2023-01-03T07:03:35.420Z,20.23
2023-01-03T07:06:03.552Z,12.97
2023-01-03T07:08:31.596Z,15.83
2023-01-03T07:11:01.021Z,43.70
2023-01-03T07:13:46.723Z,15.83
2023-01-03T07:16:16.027Z,12.83
2023-01-03T07:18:50.671Z,11.90
2023-01-03T07:21:23.022Z,18.63
2023-01-03T07:23:51.230Z,17.77
2023-01-03T07:26:20.762Z,14.63
2023-01-03T07:28:48.798Z,14.23
2023-01-03T07:31:16.858Z,14.50
2023-01-03T07:33:45.276Z,13.13
2023-01-03T07:36:15.347Z,11.83
2023-01-03T07:38:45.108Z,11.83
2023-01-03T07:41:14.646Z,11.27
2023-01-03T07:43:45.425Z,12.50
2023-01-03T07:46:15.683Z,12.20
2023-01-03T07:48:45.037Z,12.50
2023-01-03T07:51:14.836Z,11.77
2023-01-03T07:53:43.572Z,12.13
2023-01-03T07:56:14.087Z,12.80
2023-01-03T07:58:45.467Z,11.43
2023-01-03T08:01:23.633Z,12.27
2023-01-03T08:03:54.347Z,12.33
2023-01-03T08:06:24.762Z,13.20
2023-01-03T08:09:07.027Z,12.60
2023-01-03T08:11:52.923Z,12.83
2023-01-03T08:14:26.125Z,12.37
2023-01-03T08:16:55.320Z,11.80
2023-01-03T08:19:23.354Z,13.17
2023-01-03T08:21:51.649Z,16.37
2023-01-03T08:24:19.820Z,17.13
2023-01-03T08:26:48.396Z,12.40
2023-01-03T08:29:17.031Z,11.97
2023-01-03T08:31:49.116Z,11.63
2023-01-03T08:34:25.146Z,12.50
2023-01-03T08:37:01.622Z,27.13
2023-01-03T08:39:34.944Z,52.87
2023-01-03T08:42:06.780Z,35.70
2023-01-03T08:44:40.788Z,17.17
2023-01-03T08:47:10.728Z,12.97
2023-01-03T08:49:40.170Z,14.93
2023-01-03T08:52:08.314Z,13.27
2023-01-03T08:54:36.439Z,12.40
2023-01-03T08:57:04.850Z,11.30
2023-01-03T08:59:33.021Z,11.93
2023-01-03T09:02:01.534Z,11.60
2023-01-03T09:04:31.133Z,15.23
2023-01-03T09:06:59.123Z,18.90
2023-01-03T09:09:27.190Z,15.10
2023-01-03T09:11:55.382Z,11.60
2023-01-03T09:14:23.451Z,12.37
2023-01-03T09:16:51.587Z,12.30
2023-01-03T09:19:19.683Z,12.00
2023-01-03T09:21:49.274Z,11.90
2023-01-03T09:24:17.690Z,13.37
2023-01-03T09:26:50.748Z,12.03
2023-01-03T09:29:22.368Z,11.07
2023-01-03T09:31:51.453Z,11.27
2023-01-03T09:34:20.219Z,13.20
2023-01-03T09:36:49.628Z,15.47
2023-01-03T09:39:17.726Z,11.70
2023-01-03T09:42:05.978Z,11.40
2023-01-03T09:44:34.413Z,11.30
2023-01-03T09:47:03.411Z,9.60
2023-01-03T09:49:31.730Z,10.10
2023-01-03T09:52:18.619Z,10.70
2023-01-03T09:55:03.951Z,9.80
2023-01-03T09:57:52.848Z,6.90
2023-01-03T10:00:44.270Z,7.17
2023-01-03T10:03:50.838Z,8.00
2023-01-03T10:06:33.406Z,10.30
2023-01-03T10:09:19.791Z,8.40
2023-01-03T10:11:55.545Z,7.10
2023-01-03T10:14:40.152Z,7.20
2023-01-03T10:17:21.715Z,7.30
2023-01-03T10:20:27.833Z,6.90
2023-01-03T10:22:59.534Z,7.47
2023-01-03T10:25:31.318Z,7.20
2023-01-03T10:28:03.597Z,7.47
2023-01-03T10:30:40.843Z,8.10
2023-01-03T10:33:30.500Z,7.87
2023-01-03T10:35:58.739Z,6.93
2023-01-03T10:38:27.511Z,7.17
2023-01-03T10:40:59.631Z,7.30
2023-01-03T10:43:31.621Z,7.27
2023-01-03T10:46:02.161Z,7.83
2023-01-03T10:49:00.183Z,8.07
2023-01-03T10:51:35.721Z,7.83
2023-01-03T10:54:14.115Z,7.20
2023-01-03T10:56:43.618Z,17.10
2023-01-03T10:59:13.484Z,8.93
2023-01-03T11:01:56.634Z,55.00
2023-01-03T11:04:25.120Z,27.57
2023-01-03T11:07:05.522Z,60.33
2023-01-03T11:09:50.901Z,14.90
2023-01-03T11:12:29.263Z,14.97
2023-01-03T11:15:00.980Z,9.03
2023-01-03T11:17:30.460Z,65.80
2023-01-03T11:19:58.813Z,53.63
2023-01-03T11:22:38.171Z,37.73
2023-01-03T11:25:21.745Z,30.60
2023-01-03T11:28:31.462Z,10.70
2023-01-03T11:31:05.888Z,20.47
2023-01-03T11:33:52.277Z,17.80
2023-01-03T11:36:41.526Z,14.10
2023-01-03T11:39:27.246Z,7.37
2023-01-03T11:42:32.195Z,9.00
2023-01-03T11:45:25.119Z,6.57
2023-01-03T11:48:03.158Z,9.00
2023-01-03T11:50:43.594Z,11.37
2023-01-03T11:53:22.260Z,10.00
2023-01-03T11:56:07.356Z,7.37
2023-01-03T11:59:04.434Z,8.10
2023-01-03T12:01:53.212Z,6.67
2023-01-03T12:04:27.712Z,6.90
2023-01-03T12:07:46.504Z,7.07
2023-01-03T12:10:05.412Z,7.03
2023-01-03T12:13:17.644Z,7.03
2023-01-03T12:15:50.204Z,13.50
2023-01-03T12:18:27.547Z,7.77
2023-01-03T12:20:59.661Z,12.07
2023-01-03T12:23:36.498Z,7.87
2023-01-03T12:26:09.726Z,9.17
2023-01-03T12:28:42.460Z,7.30
2023-01-03T12:31:29.457Z,8.47
2023-01-03T12:34:13.641Z,8.33
2023-01-03T12:36:48.125Z,11.30
2023-01-03T12:39:33.632Z,14.53
2023-01-03T12:42:08.657Z,13.00
2023-01-03T12:44:40.575Z,17.40
2023-01-03T12:47:18.247Z,10.00
2023-01-03T12:49:54.393Z,18.83
2023-01-03T12:52:25.486Z,13.67
2023-01-03T12:54:57.525Z,8.83
2023-01-03T12:57:51.749Z,17.43
2023-01-03T13:00:28.971Z,16.93
2023-01-03T13:03:00.710Z,10.30
2023-01-03T13:05:37.134Z,15.10
2023-01-03T13:08:11.075Z,16.03
2023-01-03T13:10:44.811Z,11.47
2023-01-03T13:13:17.916Z,16.87
2023-01-03T13:15:46.474Z,16.23
2023-01-03T13:18:32.508Z,10.40
2023-01-03T13:21:02.215Z,10.07
2023-01-03T13:23:37.854Z,10.50
2023-01-03T13:26:21.379Z,15.03
2023-01-03T13:28:51.397Z,39.37
2023-01-03T13:32:02.654Z,20.80
2023-01-03T13:34:35.560Z,12.97
2023-01-03T13:37:24.306Z,17.20
2023-01-03T13:40:03.630Z,9.63
2023-01-03T13:42:37.172Z,26.30
2023-01-03T13:45:57.556Z,10.33
2023-01-03T13:48:39.662Z,10.80
2023-01-03T13:51:43.693Z,10.80
2023-01-03T13:54:51.260Z,9.27
2023-01-03T13:57:38.347Z,9.40
2023-01-03T14:00:18.713Z,9.90
2023-01-03T14:03:35.629Z,9.70
2023-01-03T14:06:28.096Z,9.30
2023-01-03T14:09:44.637Z,7.50
2023-01-03T14:12:43.835Z,8.80
2023-01-03T14:15:25.247Z,8.60
2023-01-03T14:17:57.290Z,9.87
2023-01-03T14:20:28.192Z,10.00
2023-01-03T14:22:58.097Z,13.50
2023-01-03T14:25:33.542Z,9.60
2023-01-03T14:28:03.967Z,9.03
2023-01-03T14:30:34.673Z,8.23
2023-01-03T14:33:02.844Z,7.70
2023-01-03T14:35:36.339Z,9.20
2023-01-03T14:38:07.071Z,10.20
2023-01-03T14:40:35.647Z,10.00
2023-01-03T14:43:06.495Z,8.90
2023-01-03T14:45:34.482Z,10.23
2023-01-03T14:48:02.643Z,12.70
2023-01-03T14:50:33.367Z,14.00
2023-01-03T14:53:03.331Z,9.10
2023-01-03T14:55:33.711Z,7.70
2023-01-03T14:58:05.969Z,9.00
2023-01-03T15:00:37.542Z,9.50
2023-01-03T15:03:06.063Z,7.80
2023-01-03T15:05:35.661Z,8.97
2023-01-03T15:08:12.002Z,8.50
2023-01-03T15:10:46.129Z,9.00
2023-01-03T15:13:22.979Z,8.10
2023-01-03T15:15:57.417Z,8.50
2023-01-03T15:18:27.714Z,8.60
2023-01-03T15:20:57.254Z,8.57
2023-01-03T15:23:38.397Z,8.40
2023-01-03T15:26:07.901Z,8.93
2023-01-03T15:28:38.279Z,7.23
2023-01-03T15:31:34.727Z,7.73
2023-01-03T15:34:05.171Z,8.37
2023-01-03T15:36:34.026Z,8.30
2023-01-03T15:39:02.342Z,7.53
2023-01-03T15:42:19.508Z,8.40
2023-01-03T15:44:45.828Z,10.57
2023-01-03T15:47:18.538Z,18.00
2023-01-03T15:49:50.506Z,10.10
2023-01-03T15:52:18.658Z,18.93
2023-01-03T15:54:47.308Z,20.67
2023-01-03T15:57:20.751Z,20.40
2023-01-03T15:59:53.712Z,16.97
2023-01-03T16:02:24.642Z,19.37
2023-01-03T16:04:53.717Z,11.53
2023-01-03T16:07:21.863Z,12.97
2023-01-03T16:09:50.041Z,14.23
2023-01-03T16:12:21.911Z,14.27
2023-01-03T16:14:52.891Z,14.93
2023-01-03T16:17:26.657Z,13.60
2023-01-03T16:19:55.668Z,11.80
2023-01-03T16:22:34.486Z,10.80
2023-01-03T16:25:04.665Z,11.60
2023-01-03T16:27:33.951Z,11.30
2023-01-03T16:30:02.177Z,9.67
2023-01-03T16:32:31.919Z,10.53
2023-01-03T16:35:02.945Z,10.50
2023-01-03T16:37:31.280Z,11.37
2023-01-03T16:39:59.421Z,10.20
2023-01-03T16:42:28.567Z,8.97
2023-01-03T16:44:57.935Z,10.77
2023-01-03T16:47:30.466Z,9.53
2023-01-03T16:50:03.473Z,8.53
2023-01-03T16:52:34.816Z,5.40
2023-01-03T16:55:12.932Z,4.73
2023-01-03T16:57:40.988Z,4.50
2023-01-03T17:00:19.038Z,4.37
2023-01-03T17:02:47.790Z,4.93
2023-01-03T17:05:17.907Z,4.07
2023-01-03T17:07:48.513Z,4.27
2023-01-03T17:10:26.546Z,3.90
2023-01-03T17:12:55.648Z,3.92
2023-01-03T17:15:23.785Z,5.00
2023-01-03T17:17:51.838Z,4.97
2023-01-03T17:20:23.005Z,5.68
2023-01-03T17:22:52.760Z,6.68
2023-01-03T17:25:20.891Z,8.50
2023-01-03T17:27:52.626Z,9.18
2023-01-03T17:30:24.696Z,8.20
2023-01-03T17:32:53.192Z,9.00
2023-01-03T17:35:22.682Z,8.50
2023-01-03T17:40:42.718Z,9.30
2023-01-03T17:43:19.346Z,9.25
2023-01-03T17:46:06.497Z,8.80
2023-01-03T17:48:52.640Z,9.65
2023-01-03T17:51:22.673Z,8.60
2023-01-03T17:53:51.937Z,9.55
2023-01-03T17:56:21.026Z,8.23
2023-01-03T17:58:56.315Z,8.40
2023-01-03T18:01:25.136Z,7.78
2023-01-03T18:03:53.319Z,7.65
2023-01-03T18:06:24.927Z,7.90
2023-01-03T18:08:55.771Z,7.05
2023-01-03T18:11:28.253Z,7.75
2023-01-03T18:13:56.319Z,8.20
2023-01-03T18:16:24.752Z,8.80
2023-01-03T18:18:52.885Z,14.80
2023-01-03T18:21:24.025Z,16.45
2023-01-03T18:23:56.286Z,13.95
2023-01-03T18:26:27.601Z,10.75
2023-01-03T18:28:55.647Z,12.35
2023-01-03T18:31:23.825Z,31.10
2023-01-03T18:33:51.855Z,29.83
2023-01-03T18:36:31.722Z,19.98
2023-01-03T18:39:03.230Z,16.00
2023-01-03T18:41:33.740Z,11.82
2023-01-03T18:44:02.225Z,11.85
2023-01-03T18:46:30.784Z,11.52
2023-01-03T18:48:58.908Z,10.93
2023-01-03T18:51:30.538Z,10.82
2023-01-03T18:54:00.145Z,11.13
2023-01-03T18:56:33.765Z,14.57
2023-01-03T18:59:05.111Z,12.60
2023-01-03T19:01:33.277Z,11.38
2023-01-03T19:04:04.125Z,10.85
2023-01-03T19:06:34.144Z,11.48
2023-01-03T19:09:04.753Z,11.30
2023-01-03T19:11:35.837Z,14.15
2023-01-03T19:14:04.808Z,14.38
2023-01-03T19:16:35.349Z,14.57
2023-01-03T19:19:04.653Z,15.05
2023-01-03T19:21:36.447Z,15.63
2023-01-03T19:24:07.581Z,16.15
2023-01-03T19:26:40.384Z,14.35
2023-01-03T19:29:17.484Z,16.23
2023-01-03T19:31:48.096Z,15.07
2023-01-03T19:34:17.780Z,15.27
2023-01-03T19:36:47.919Z,13.50
2023-01-03T19:39:20.987Z,13.02
2023-01-03T19:42:16.231Z,13.95
2023-01-03T19:44:45.104Z,14.13
2023-01-03T19:47:15.396Z,13.23
2023-01-03T19:49:44.141Z,14.73
2023-01-03T19:52:13.693Z,14.50
2023-01-03T19:54:41.859Z,15.55
2023-01-03T19:57:20.215Z,16.05
2023-01-03T19:59:52.245Z,16.27
2023-01-03T20:02:34.333Z,14.68
2023-01-03T20:05:02.751Z,15.07
2023-01-03T20:07:32.197Z,17.20
2023-01-03T20:10:00.230Z,15.77
2023-01-03T20:12:28.388Z,16.58
2023-01-03T20:15:02.905Z,16.67
2023-01-03T20:17:34.681Z,19.58
2023-01-03T20:20:02.810Z,20.33
2023-01-03T20:25:26.483Z,19.02
2023-01-03T20:27:56.190Z,19.33
2023-01-03T20:30:26.636Z,17.88
2023-01-03T20:32:54.678Z,17.00
2023-01-03T20:36:08.197Z,16.77
2023-01-03T20:38:16.693Z,17.08
2023-01-03T20:40:44.955Z,16.95
2023-01-03T20:43:17.241Z,17.65
2023-01-03T20:45:45.831Z,16.30
2023-01-03T20:48:21.222Z,15.27
2023-01-03T20:50:53.410Z,15.45
2023-01-03T20:53:25.330Z,14.18
2023-01-03T20:55:53.610Z,14.05
2023-01-03T20:58:25.058Z,14.35
2023-01-03T21:00:59.811Z,14.80
2023-01-03T21:03:32.856Z,14.32
2023-01-03T21:06:01.152Z,14.15
2023-01-03T21:08:47.798Z,15.13
2023-01-03T21:11:15.982Z,14.40
2023-01-03T21:13:44.150Z,20.42
2023-01-03T21:16:41.568Z,21.15
2023-01-03T21:19:14.063Z,16.55
2023-01-03T21:21:44.116Z,16.08
2023-01-03T21:24:14.695Z,15.68
2023-01-03T21:26:43.568Z,16.20
2023-01-03T21:29:11.899Z,15.30
2023-01-03T21:31:42.154Z,15.10
2023-01-03T21:34:17.014Z,13.05
2023-01-03T21:36:45.220Z,12.00
2023-01-03T21:39:14.613Z,12.02
2023-01-03T21:41:56.645Z,13.38
2023-01-03T21:44:24.695Z,12.95
2023-01-03T21:46:52.811Z,13.80
2023-01-03T21:49:21.072Z,14.20
2023-01-03T21:51:49.315Z,13.10
2023-01-03T21:54:18.724Z,13.65
2023-01-03T21:56:47.279Z,13.30
2023-01-03T21:59:16.801Z,12.60
2023-01-03T22:02:03.259Z,13.60
2023-01-03T22:04:31.488Z,13.88
2023-01-03T22:07:00.826Z,14.30
2023-01-03T22:09:48.483Z,13.43
2023-01-03T22:12:16.967Z,14.55
2023-01-03T22:14:45.348Z,12.43
2023-01-03T22:17:13.523Z,13.68
2023-01-03T22:19:41.711Z,13.35
2023-01-03T22:22:09.909Z,13.98
2023-01-03T22:24:39.287Z,13.43
2023-01-03T22:27:07.715Z,12.05
2023-01-03T22:29:35.773Z,12.45
2023-01-03T22:32:04.029Z,13.70
2023-01-03T22:34:32.198Z,13.63
2023-01-03T22:37:00.230Z,12.25
2023-01-03T22:39:29.081Z,11.70
2023-01-03T22:41:58.998Z,14.10
2023-01-03T22:44:26.999Z,12.77
2023-01-03T22:46:55.059Z,12.52
2023-01-03T22:49:23.032Z,14.88
2023-01-03T22:51:51.141Z,13.05
2023-01-03T22:54:19.239Z,14.45
2023-01-03T22:56:47.234Z,14.77
2023-01-03T22:59:17.007Z,12.80
2023-01-03T23:01:45.441Z,12.43
2023-01-03T23:04:13.583Z,12.32
2023-01-03T23:06:41.821Z,11.70
2023-01-03T23:09:09.800Z,11.20
2023-01-03T23:11:55.849Z,12.18
2023-01-03T23:14:26.511Z,11.77
2023-01-03T23:16:56.152Z,12.52
2023-01-03T23:19:26.616Z,11.60
2023-01-03T23:21:58.086Z,13.55
2023-01-03T23:24:26.280Z,13.23
2023-01-03T23:26:54.684Z,14.23
2023-01-03T23:29:23.069Z,15.27
2023-01-03T23:31:52.764Z,13.80
2023-01-03T23:34:21.073Z,14.85
2023-01-03T23:36:49.495Z,13.43
2023-01-03T23:39:19.238Z,12.38
2023-01-03T23:41:47.568Z,12.82
2023-01-03T23:44:15.784Z,12.80
2023-01-03T23:46:44.252Z,13.13
2023-01-03T23:49:16.154Z,12.82
2023-01-03T23:51:44.757Z,13.18
2023-01-03T23:54:12.790Z,13.93
2023-01-03T23:56:40.856Z,14.15
2023-01-03T23:59:08.897Z,14.23
